sensor_id;sensor_type;location;lat;lon;timestamp;P1;durP1;ratioP1;P2;durP2;ratioP2
55603;SDS011;41468;48.838;9.330;2024-01-10T00:00:46;11.90;;;8.17;;
55603;SDS011;41468;48.838;9.330;2024-01-10T00:03:13;15.57;;;8.57;;
55603;SDS011;41468;48.838;9.330;2024-01-10T00:05:40;16.13;;;8.63;;
55603;SDS011;41468;48.838;9.330;2024-01-10T00:08:06;13.80;;;7.80;;
55603;SDS011;41468;48.838;9.330;2024-01-10T00:10:33;16.90;;;7.90;;
55603;SDS011;41468;48.838;9.330;2024-01-10T00:13:00;15.60;;;8.43;;
55603;SDS011;41468;48.838;9.330;2024-01-10T00:15:38;13.50;;;8.27;;
55603;SDS011;41468;48.838;9.330;2024-01-10T00:18:15;12.60;;;8.27;;
55603;SDS011;41468;48.838;9.330;2024-01-10T00:20:42;15.67;;;8.90;;
55603;SDS011;41468;48.838;9.330;2024-01-10T00:23:09;17.53;;;8.73;;
55603;SDS011;41468;48.838;9.330;2024-01-10T00:25:36;13.63;;;8.20;;
55603;SDS011;41468;48.838;9.330;2024-01-10T00:28:03;15.07;;;8.17;;
55603;SDS011;41468;48.838;9.330;2024-01-10T00:30:30;17.97;;;8.93;;
55603;SDS011;41468;48.838;9.330;2024-01-10T00:33:02;16.73;;;9.37;;
55603;SDS011;41468;48.838;9.330;2024-01-10T00:35:28;17.43;;;8.60;;
55603;SDS011;41468;48.838;9.330;2024-01-10T00:37:55;16.87;;;9.07;;
55603;SDS011;41468;48.838;9.330;2024-01-10T00:40:22;17.30;;;9.57;;
55603;SDS011;41468;48.838;9.330;2024-01-10T00:42:50;14.00;;;9.20;;
55603;SDS011;41468;48.838;9.330;2024-01-10T00:45:16;21.53;;;9.83;;
55603;SDS011;41468;48.838;9.330;2024-01-10T00:47:43;16.07;;;8.63;;
55603;SDS011;41468;48.838;9.330;2024-01-10T00:50:10;18.70;;;10.13;;
55603;SDS011;41468;48.838;9.330;2024-01-10T00:52:37;15.27;;;9.07;;
55603;SDS011;41468;48.838;9.330;2024-01-10T00:55:04;14.53;;;9.37;;
55603;SDS011;41468;48.838;9.330;2024-01-10T00:57:31;15.17;;;9.20;;
55603;SDS011;41468;48.838;9.330;2024-01-10T00:59:57;17.30;;;9.47;;
55603;SDS011;41468;48.838;9.330;2024-01-10T01:02:24;15.07;;;9.03;;
55603;SDS011;41468;48.838;9.330;2024-01-10T01:04:51;18.67;;;8.70;;
55603;SDS011;41468;48.838;9.330;2024-01-10T01:07:18;14.57;;;8.23;;
55603;SDS011;41468;48.838;9.330;2024-01-10T01:09:45;14.07;;;8.53;;
55603;SDS011;41468;48.838;9.330;2024-01-10T01:12:11;15.83;;;8.40;;
55603;SDS011;41468;48.838;9.330;2024-01-10T01:14:38;14.87;;;9.10;;
55603;SDS011;41468;48.838;9.330;2024-01-10T01:17:05;17.43;;;8.70;;
55603;SDS011;41468;48.838;9.330;2024-01-10T01:19:32;14.83;;;8.53;;
55603;SDS011;41468;48.838;9.330;2024-01-10T01:21:59;15.40;;;8.63;;
55603;SDS011;41468;48.838;9.330;2024-01-10T01:24:25;15.60;;;8.57;;
55603;SDS011;41468;48.838;9.330;2024-01-10T01:26:52;16.33;;;7.90;;
55603;SDS011;41468;48.838;9.330;2024-01-10T01:29:19;17.40;;;9.43;;
55603;SDS011;41468;48.838;9.330;2024-01-10T01:31:47;18.03;;;8.67;;
55603;SDS011;41468;48.838;9.330;2024-01-10T01:34:14;17.40;;;9.07;;
55603;SDS011;41468;48.838;9.330;2024-01-10T01:36:40;17.80;;;9.20;;
55603;SDS011;41468;48.838;9.330;2024-01-10T01:39:07;17.53;;;8.87;;
55603;SDS011;41468;48.838;9.330;2024-01-10T01:41:34;17.07;;;9.30;;
55603;SDS011;41468;48.838;9.330;2024-01-10T01:44:01;13.73;;;8.37;;
55603;SDS011;41468;48.838;9.330;2024-01-10T01:46:28;15.60;;;7.90;;
55603;SDS011;41468;48.838;9.330;2024-01-10T01:48:54;16.80;;;8.87;;
55603;SDS011;41468;48.838;9.330;2024-01-10T01:51:22;15.73;;;8.63;;
55603;SDS011;41468;48.838;9.330;2024-01-10T01:53:49;15.43;;;8.27;;
55603;SDS011;41468;48.838;9.330;2024-01-10T01:56:16;15.70;;;9.63;;
55603;SDS011;41468;48.838;9.330;2024-01-10T01:58:43;13.03;;;7.60;;
55603;SDS011;41468;48.838;9.330;2024-01-10T02:01:12;15.73;;;8.83;;
55603;SDS011;41468;48.838;9.330;2024-01-10T02:03:39;13.93;;;8.33;;
55603;SDS011;41468;48.838;9.330;2024-01-10T02:06:06;11.67;;;7.83;;
55603;SDS011;41468;48.838;9.330;2024-01-10T02:08:34;16.17;;;7.77;;
55603;SDS011;41468;48.838;9.330;2024-01-10T02:11:01;14.57;;;8.20;;
55603;SDS011;41468;48.838;9.330;2024-01-10T02:13:29;12.67;;;8.50;;
55603;SDS011;41468;48.838;9.330;2024-01-10T02:16:00;14.37;;;8.23;;
55603;SDS011;41468;48.838;9.330;2024-01-10T02:18:28;14.87;;;8.23;;
55603;SDS011;41468;48.838;9.330;2024-01-10T02:20:55;11.70;;;7.83;;
55603;SDS011;41468;48.838;9.330;2024-01-10T02:23:21;13.47;;;7.47;;
55603;SDS011;41468;48.838;9.330;2024-01-10T02:25:48;16.90;;;6.73;;
55603;SDS011;41468;48.838;9.330;2024-01-10T02:28:15;12.87;;;7.63;;
55603;SDS011;41468;48.838;9.330;2024-01-10T02:30:42;18.47;;;7.83;;
55603;SDS011;41468;48.838;9.330;2024-01-10T02:33:09;16.00;;;7.93;;
55603;SDS011;41468;48.838;9.330;2024-01-10T02:35:36;12.20;;;7.73;;
55603;SDS011;41468;48.838;9.330;2024-01-10T02:38:02;15.97;;;8.10;;
55603;SDS011;41468;48.838;9.330;2024-01-10T02:40:31;13.77;;;8.37;;
55603;SDS011;41468;48.838;9.330;2024-01-10T02:42:57;11.73;;;8.10;;
55603;SDS011;41468;48.838;9.330;2024-01-10T02:45:24;13.93;;;8.50;;
55603;SDS011;41468;48.838;9.330;2024-01-10T02:47:51;13.17;;;8.13;;
55603;SDS011;41468;48.838;9.330;2024-01-10T02:50:18;14.17;;;7.63;;
55603;SDS011;41468;48.838;9.330;2024-01-10T02:52:45;12.87;;;8.17;;
55603;SDS011;41468;48.838;9.330;2024-01-10T02:55:11;14.93;;;7.37;;
55603;SDS011;41468;48.838;9.330;2024-01-10T02:57:38;12.77;;;7.47;;
55603;SDS011;41468;48.838;9.330;2024-01-10T03:00:05;11.70;;;7.40;;
55603;SDS011;41468;48.838;9.330;2024-01-10T03:02:33;14.90;;;7.17;;
55603;SDS011;41468;48.838;9.330;2024-01-10T03:04:59;15.93;;;7.47;;
55603;SDS011;41468;48.838;9.330;2024-01-10T03:07:31;10.73;;;7.47;;
55603;SDS011;41468;48.838;9.330;2024-01-10T03:09:57;11.90;;;7.57;;
55603;SDS011;41468;48.838;9.330;2024-01-10T03:12:24;14.13;;;6.90;;
55603;SDS011;41468;48.838;9.330;2024-01-10T03:14:51;14.07;;;7.60;;
55603;SDS011;41468;48.838;9.330;2024-01-10T03:17:18;10.20;;;6.87;;
55603;SDS011;41468;48.838;9.330;2024-01-10T03:19:44;11.77;;;6.97;;
55603;SDS011;41468;48.838;9.330;2024-01-10T03:22:11;9.73;;;6.47;;
55603;SDS011;41468;48.838;9.330;2024-01-10T03:24:46;13.27;;;7.37;;
55603;SDS011;41468;48.838;9.330;2024-01-10T03:27:12;15.13;;;7.10;;
55603;SDS011;41468;48.838;9.330;2024-01-10T03:29:39;10.77;;;7.40;;
55603;SDS011;41468;48.838;9.330;2024-01-10T03:32:06;11.43;;;6.70;;
55603;SDS011;41468;48.838;9.330;2024-01-10T03:34:33;12.27;;;6.73;;
55603;SDS011;41468;48.838;9.330;2024-01-10T03:36:59;15.50;;;7.40;;
55603;SDS011;41468;48.838;9.330;2024-01-10T03:39:26;18.27;;;7.37;;
55603;SDS011;41468;48.838;9.330;2024-01-10T03:41:53;12.63;;;7.17;;
55603;SDS011;41468;48.838;9.330;2024-01-10T03:44:25;12.37;;;6.63;;
55603;SDS011;41468;48.838;9.330;2024-01-10T03:46:53;11.17;;;7.33;;
55603;SDS011;41468;48.838;9.330;2024-01-10T03:49:19;10.60;;;6.53;;
55603;SDS011;41468;48.838;9.330;2024-01-10T03:51:46;12.50;;;6.60;;
55603;SDS011;41468;48.838;9.330;2024-01-10T03:54:13;13.60;;;6.53;;
55603;SDS011;41468;48.838;9.330;2024-01-10T03:56:40;13.03;;;7.07;;
55603;SDS011;41468;48.838;9.330;2024-01-10T03:59:07;11.23;;;6.93;;
55603;SDS011;41468;48.838;9.330;2024-01-10T04:01:33;11.53;;;6.57;;
55603;SDS011;41468;48.838;9.330;2024-01-10T04:04:00;11.50;;;6.53;;
55603;SDS011;41468;48.838;9.330;2024-01-10T04:06:27;12.23;;;6.70;;
55603;SDS011;41468;48.838;9.330;2024-01-10T04:08:55;12.63;;;6.87;;
55603;SDS011;41468;48.838;9.330;2024-01-10T04:11:21;14.00;;;7.30;;
55603;SDS011;41468;48.838;9.330;2024-01-10T04:13:48;11.27;;;7.27;;
55603;SDS011;41468;48.838;9.330;2024-01-10T04:16:15;10.93;;;6.67;;
55603;SDS011;41468;48.838;9.330;2024-01-10T04:18:41;11.90;;;6.57;;
55603;SDS011;41468;48.838;9.330;2024-01-10T04:21:08;13.47;;;7.50;;
55603;SDS011;41468;48.838;9.330;2024-01-10T04:23:35;13.33;;;6.80;;
55603;SDS011;41468;48.838;9.330;2024-01-10T04:26:07;13.80;;;7.30;;
55603;SDS011;41468;48.838;9.330;2024-01-10T04:28:34;14.77;;;7.23;;
55603;SDS011;41468;48.838;9.330;2024-01-10T04:31:01;12.73;;;7.30;;
55603;SDS011;41468;48.838;9.330;2024-01-10T04:33:27;14.23;;;8.23;;
55603;SDS011;41468;48.838;9.330;2024-01-10T04:35:54;11.77;;;6.93;;
55603;SDS011;41468;48.838;9.330;2024-01-10T04:38:21;10.90;;;7.37;;
55603;SDS011;41468;48.838;9.330;2024-01-10T04:40:48;12.07;;;6.77;;
55603;SDS011;41468;48.838;9.330;2024-01-10T04:43:15;12.57;;;7.57;;
55603;SDS011;41468;48.838;9.330;2024-01-10T04:45:41;11.13;;;7.20;;
55603;SDS011;41468;48.838;9.330;2024-01-10T04:48:08;16.23;;;7.77;;
55603;SDS011;41468;48.838;9.330;2024-01-10T04:50:35;14.60;;;7.97;;
55603;SDS011;41468;48.838;9.330;2024-01-10T04:53:02;11.83;;;7.20;;
55603;SDS011;41468;48.838;9.330;2024-01-10T04:55:29;13.63;;;7.60;;
55603;SDS011;41468;48.838;9.330;2024-01-10T04:57:56;14.50;;;7.23;;
55603;SDS011;41468;48.838;9.330;2024-01-10T05:00:23;15.70;;;7.97;;
55603;SDS011;41468;48.838;9.330;2024-01-10T05:02:49;11.33;;;7.17;;
55603;SDS011;41468;48.838;9.330;2024-01-10T05:05:20;14.17;;;7.37;;
55603;SDS011;41468;48.838;9.330;2024-01-10T05:07:50;14.13;;;7.73;;
55603;SDS011;41468;48.838;9.330;2024-01-10T05:10:17;10.73;;;7.00;;
55603;SDS011;41468;48.838;9.330;2024-01-10T05:12:44;14.53;;;7.90;;
55603;SDS011;41468;48.838;9.330;2024-01-10T05:15:11;13.67;;;7.93;;
55603;SDS011;41468;48.838;9.330;2024-01-10T05:17:38;12.00;;;7.60;;
55603;SDS011;41468;48.838;9.330;2024-01-10T05:20:05;13.03;;;7.53;;
55603;SDS011;41468;48.838;9.330;2024-01-10T05:22:32;14.27;;;8.47;;
55603;SDS011;41468;48.838;9.330;2024-01-10T05:25:00;17.23;;;9.67;;
55603;SDS011;41468;48.838;9.330;2024-01-10T05:27:27;13.43;;;7.97;;
55603;SDS011;41468;48.838;9.330;2024-01-10T05:29:54;15.10;;;8.37;;
55603;SDS011;41468;48.838;9.330;2024-01-10T05:32:20;16.53;;;7.23;;
55603;SDS011;41468;48.838;9.330;2024-01-10T05:34:55;14.30;;;7.97;;
55603;SDS011;41468;48.838;9.330;2024-01-10T05:37:21;14.53;;;7.50;;
55603;SDS011;41468;48.838;9.330;2024-01-10T05:39:48;15.23;;;7.20;;
55603;SDS011;41468;48.838;9.330;2024-01-10T05:42:16;10.57;;;6.87;;
55603;SDS011;41468;48.838;9.330;2024-01-10T05:44:43;16.90;;;8.30;;
55603;SDS011;41468;48.838;9.330;2024-01-10T05:47:09;14.53;;;7.50;;
55603;SDS011;41468;48.838;9.330;2024-01-10T05:49:36;13.03;;;7.27;;
55603;SDS011;41468;48.838;9.330;2024-01-10T05:52:03;13.87;;;6.90;;
55603;SDS011;41468;48.838;9.330;2024-01-10T05:54:30;12.70;;;7.57;;
55603;SDS011;41468;48.838;9.330;2024-01-10T05:56:57;11.50;;;6.80;;
55603;SDS011;41468;48.838;9.330;2024-01-10T05:59:24;13.80;;;7.10;;
55603;SDS011;41468;48.838;9.330;2024-01-10T06:01:55;14.33;;;7.37;;
55603;SDS011;41468;48.838;9.330;2024-01-10T06:04:22;12.33;;;7.03;;
55603;SDS011;41468;48.838;9.330;2024-01-10T06:06:49;12.90;;;7.50;;
55603;SDS011;41468;48.838;9.330;2024-01-10T06:09:15;15.23;;;7.60;;
55603;SDS011;41468;48.838;9.330;2024-01-10T06:11:48;13.27;;;7.90;;
55603;SDS011;41468;48.838;9.330;2024-01-10T06:14:15;11.00;;;7.63;;
55603;SDS011;41468;48.838;9.330;2024-01-10T06:16:43;12.23;;;7.33;;
55603;SDS011;41468;48.838;9.330;2024-01-10T06:19:11;14.53;;;7.97;;
55603;SDS011;41468;48.838;9.330;2024-01-10T06:21:38;13.70;;;7.67;;
55603;SDS011;41468;48.838;9.330;2024-01-10T06:24:05;14.30;;;7.50;;
55603;SDS011;41468;48.838;9.330;2024-01-10T06:26:32;13.17;;;8.63;;
55603;SDS011;41468;48.838;9.330;2024-01-10T06:28:59;12.60;;;7.50;;
55603;SDS011;41468;48.838;9.330;2024-01-10T06:31:26;11.67;;;7.77;;
55603;SDS011;41468;48.838;9.330;2024-01-10T06:33:53;21.07;;;11.37;;
55603;SDS011;41468;48.838;9.330;2024-01-10T06:36:20;17.10;;;8.43;;
55603;SDS011;41468;48.838;9.330;2024-01-10T06:38:51;13.77;;;8.07;;
55603;SDS011;41468;48.838;9.330;2024-01-10T06:41:20;12.33;;;7.70;;
55603;SDS011;41468;48.838;9.330;2024-01-10T06:44:01;12.07;;;7.97;;
55603;SDS011;41468;48.838;9.330;2024-01-10T06:46:31;12.93;;;7.87;;
55603;SDS011;41468;48.838;9.330;2024-01-10T06:48:58;11.80;;;7.60;;
55603;SDS011;41468;48.838;9.330;2024-01-10T06:51:25;14.37;;;8.40;;
55603;SDS011;41468;48.838;9.330;2024-01-10T06:53:55;13.33;;;7.63;;
55603;SDS011;41468;48.838;9.330;2024-01-10T06:56:29;14.33;;;8.30;;
55603;SDS011;41468;48.838;9.330;2024-01-10T06:58:57;14.33;;;8.03;;
55603;SDS011;41468;48.838;9.330;2024-01-10T07:01:31;15.40;;;7.90;;
55603;SDS011;41468;48.838;9.330;2024-01-10T07:03:57;12.07;;;7.13;;
55603;SDS011;41468;48.838;9.330;2024-01-10T07:06:24;18.23;;;8.47;;
55603;SDS011;41468;48.838;9.330;2024-01-10T07:08:51;15.73;;;8.40;;
55603;SDS011;41468;48.838;9.330;2024-01-10T07:11:18;13.27;;;8.50;;
55603;SDS011;41468;48.838;9.330;2024-01-10T07:13:46;10.67;;;7.43;;
55603;SDS011;41468;48.838;9.330;2024-01-10T07:16:13;12.83;;;7.77;;
55603;SDS011;41468;48.838;9.330;2024-01-10T07:18:48;15.30;;;8.50;;
55603;SDS011;41468;48.838;9.330;2024-01-10T07:21:18;15.63;;;8.33;;
55603;SDS011;41468;48.838;9.330;2024-01-10T07:23:46;13.27;;;7.80;;
55603;SDS011;41468;48.838;9.330;2024-01-10T07:26:13;13.40;;;7.77;;
55603;SDS011;41468;48.838;9.330;2024-01-10T07:28:43;17.93;;;8.47;;
55603;SDS011;41468;48.838;9.330;2024-01-10T07:31:11;16.07;;;8.13;;
55603;SDS011;41468;48.838;9.330;2024-01-10T07:33:38;17.23;;;9.07;;
55603;SDS011;41468;48.838;9.330;2024-01-10T07:36:05;13.53;;;8.60;;
55603;SDS011;41468;48.838;9.330;2024-01-10T07:38:32;17.63;;;9.07;;
55603;SDS011;41468;48.838;9.330;2024-01-10T07:40:59;19.23;;;9.63;;
55603;SDS011;41468;48.838;9.330;2024-01-10T07:43:37;17.30;;;9.70;;
55603;SDS011;41468;48.838;9.330;2024-01-10T07:46:04;15.50;;;8.73;;
55603;SDS011;41468;48.838;9.330;2024-01-10T07:48:31;14.73;;;9.40;;
55603;SDS011;41468;48.838;9.330;2024-01-10T07:50:58;15.80;;;8.70;;
55603;SDS011;41468;48.838;9.330;2024-01-10T07:53:24;18.53;;;9.23;;
55603;SDS011;41468;48.838;9.330;2024-01-10T07:55:53;14.70;;;8.57;;
55603;SDS011;41468;48.838;9.330;2024-01-10T07:58:20;14.67;;;8.17;;
55603;SDS011;41468;48.838;9.330;2024-01-10T08:00:46;17.20;;;9.03;;
55603;SDS011;41468;48.838;9.330;2024-01-10T08:03:13;13.77;;;8.37;;
55603;SDS011;41468;48.838;9.330;2024-01-10T08:05:40;12.63;;;8.07;;
55603;SDS011;41468;48.838;9.330;2024-01-10T08:08:07;16.27;;;9.07;;
55603;SDS011;41468;48.838;9.330;2024-01-10T08:10:35;15.17;;;8.80;;
55603;SDS011;41468;48.838;9.330;2024-01-10T08:13:05;12.83;;;9.10;;
55603;SDS011;41468;48.838;9.330;2024-01-10T08:15:31;15.80;;;8.87;;
55603;SDS011;41468;48.838;9.330;2024-01-10T08:18:00;14.43;;;8.93;;
55603;SDS011;41468;48.838;9.330;2024-01-10T08:20:30;17.87;;;9.23;;
55603;SDS011;41468;48.838;9.330;2024-01-10T08:22:57;13.73;;;8.27;;
55603;SDS011;41468;48.838;9.330;2024-01-10T08:25:24;15.03;;;8.73;;
55603;SDS011;41468;48.838;9.330;2024-01-10T08:27:51;14.77;;;8.70;;
55603;SDS011;41468;48.838;9.330;2024-01-10T08:30:20;16.50;;;9.70;;
55603;SDS011;41468;48.838;9.330;2024-01-10T08:32:48;14.70;;;8.40;;
55603;SDS011;41468;48.838;9.330;2024-01-10T08:35:15;14.90;;;8.70;;
55603;SDS011;41468;48.838;9.330;2024-01-10T08:37:42;13.73;;;9.03;;
55603;SDS011;41468;48.838;9.330;2024-01-10T08:40:10;14.33;;;8.97;;
55603;SDS011;41468;48.838;9.330;2024-01-10T08:42:38;17.60;;;9.83;;
55603;SDS011;41468;48.838;9.330;2024-01-10T08:45:05;16.03;;;9.30;;
55603;SDS011;41468;48.838;9.330;2024-01-10T08:47:32;17.27;;;9.53;;
55603;SDS011;41468;48.838;9.330;2024-01-10T08:50:01;14.00;;;8.67;;
55603;SDS011;41468;48.838;9.330;2024-01-10T08:52:31;14.57;;;8.70;;
55603;SDS011;41468;48.838;9.330;2024-01-10T08:54:58;13.03;;;8.37;;
55603;SDS011;41468;48.838;9.330;2024-01-10T08:57:29;17.30;;;9.63;;
55603;SDS011;41468;48.838;9.330;2024-01-10T08:59:56;17.37;;;9.17;;
55603;SDS011;41468;48.838;9.330;2024-01-10T09:02:23;16.37;;;9.53;;
55603;SDS011;41468;48.838;9.330;2024-01-10T09:04:50;15.17;;;9.17;;
55603;SDS011;41468;48.838;9.330;2024-01-10T09:07:17;13.43;;;8.63;;
55603;SDS011;41468;48.838;9.330;2024-01-10T09:09:44;18.03;;;9.53;;
55603;SDS011;41468;48.838;9.330;2024-01-10T09:12:11;18.83;;;9.83;;
55603;SDS011;41468;48.838;9.330;2024-01-10T09:14:38;18.80;;;9.43;;
55603;SDS011;41468;48.838;9.330;2024-01-10T09:17:05;17.60;;;10.00;;
55603;SDS011;41468;48.838;9.330;2024-01-10T09:19:32;14.20;;;10.00;;
55603;SDS011;41468;48.838;9.330;2024-01-10T09:21:59;15.63;;;9.60;;
55603;SDS011;41468;48.838;9.330;2024-01-10T09:24:26;17.90;;;10.47;;
55603;SDS011;41468;48.838;9.330;2024-01-10T09:26:55;16.97;;;10.30;;
55603;SDS011;41468;48.838;9.330;2024-01-10T09:29:23;22.80;;;11.00;;
55603;SDS011;41468;48.838;9.330;2024-01-10T09:31:52;16.53;;;10.53;;
55603;SDS011;41468;48.838;9.330;2024-01-10T09:34:19;17.77;;;10.97;;
55603;SDS011;41468;48.838;9.330;2024-01-10T09:36:52;15.70;;;10.13;;
55603;SDS011;41468;48.838;9.330;2024-01-10T09:39:19;16.97;;;10.70;;
55603;SDS011;41468;48.838;9.330;2024-01-10T09:41:47;21.17;;;11.97;;
55603;SDS011;41468;48.838;9.330;2024-01-10T09:44:15;26.00;;;11.77;;
55603;SDS011;41468;48.838;9.330;2024-01-10T09:46:54;19.00;;;10.73;;
55603;SDS011;41468;48.838;9.330;2024-01-10T09:49:21;18.17;;;11.33;;
55603;SDS011;41468;48.838;9.330;2024-01-10T09:51:49;18.97;;;11.43;;
55603;SDS011;41468;48.838;9.330;2024-01-10T09:54:19;16.03;;;11.40;;
55603;SDS011;41468;48.838;9.330;2024-01-10T09:56:48;19.13;;;11.23;;
55603;SDS011;41468;48.838;9.330;2024-01-10T09:59:15;19.27;;;11.53;;
55603;SDS011;41468;48.838;9.330;2024-01-10T10:01:42;17.23;;;10.60;;
55603;SDS011;41468;48.838;9.330;2024-01-10T10:04:10;17.53;;;10.73;;
55603;SDS011;41468;48.838;9.330;2024-01-10T10:06:39;18.00;;;10.80;;
55603;SDS011;41468;48.838;9.330;2024-01-10T10:09:10;17.07;;;10.90;;
55603;SDS011;41468;48.838;9.330;2024-01-10T10:11:38;19.00;;;11.70;;
55603;SDS011;41468;48.838;9.330;2024-01-10T10:14:14;21.03;;;11.27;;
55603;SDS011;41468;48.838;9.330;2024-01-10T10:16:42;19.33;;;11.23;;
55603;SDS011;41468;48.838;9.330;2024-01-10T10:19:10;22.30;;;11.63;;
55603;SDS011;41468;48.838;9.330;2024-01-10T10:21:49;18.13;;;11.40;;
55603;SDS011;41468;48.838;9.330;2024-01-10T10:24:16;21.87;;;12.37;;
55603;SDS011;41468;48.838;9.330;2024-01-10T10:26:46;17.57;;;11.23;;
55603;SDS011;41468;48.838;9.330;2024-01-10T10:29:16;20.30;;;11.47;;
55603;SDS011;41468;48.838;9.330;2024-01-10T10:31:46;20.83;;;11.13;;
55603;SDS011;41468;48.838;9.330;2024-01-10T10:34:14;20.50;;;11.67;;
55603;SDS011;41468;48.838;9.330;2024-01-10T10:36:47;18.13;;;11.40;;
55603;SDS011;41468;48.838;9.330;2024-01-10T10:39:17;18.90;;;11.17;;
55603;SDS011;41468;48.838;9.330;2024-01-10T10:41:45;21.43;;;11.80;;
55603;SDS011;41468;48.838;9.330;2024-01-10T10:44:13;20.70;;;11.23;;
55603;SDS011;41468;48.838;9.330;2024-01-10T10:46:49;21.80;;;12.77;;
55603;SDS011;41468;48.838;9.330;2024-01-10T10:49:36;17.83;;;10.77;;
55603;SDS011;41468;48.838;9.330;2024-01-10T10:52:13;17.93;;;11.83;;
55603;SDS011;41468;48.838;9.330;2024-01-10T10:54:41;19.83;;;12.13;;
55603;SDS011;41468;48.838;9.330;2024-01-10T10:57:10;19.77;;;11.27;;
55603;SDS011;41468;48.838;9.330;2024-01-10T10:59:38;19.10;;;11.70;;
55603;SDS011;41468;48.838;9.330;2024-01-10T11:02:08;21.73;;;11.23;;
55603;SDS011;41468;48.838;9.330;2024-01-10T11:04:37;23.93;;;12.43;;
55603;SDS011;41468;48.838;9.330;2024-01-10T11:07:07;20.23;;;11.40;;
55603;SDS011;41468;48.838;9.330;2024-01-10T11:09:35;20.70;;;12.03;;
55603;SDS011;41468;48.838;9.330;2024-01-10T11:15:20;18.60;;;12.00;;
55603;SDS011;41468;48.838;9.330;2024-01-10T11:21:05;21.47;;;11.83;;
55603;SDS011;41468;48.838;9.330;2024-01-10T11:23:45;21.40;;;11.73;;
55603;SDS011;41468;48.838;9.330;2024-01-10T11:26:15;20.50;;;11.97;;
55603;SDS011;41468;48.838;9.330;2024-01-10T11:28:43;20.43;;;12.77;;
55603;SDS011;41468;48.838;9.330;2024-01-10T11:31:10;19.47;;;12.07;;
55603;SDS011;41468;48.838;9.330;2024-01-10T11:33:40;20.43;;;12.43;;
55603;SDS011;41468;48.838;9.330;2024-01-10T11:36:18;22.70;;;12.13;;
55603;SDS011;41468;48.838;9.330;2024-01-10T11:41:20;23.40;;;12.63;;
55603;SDS011;41468;48.838;9.330;2024-01-10T11:46:37;20.50;;;13.03;;
55603;SDS011;41468;48.838;9.330;2024-01-10T11:49:10;20.47;;;12.83;;
55603;SDS011;41468;48.838;9.330;2024-01-10T11:51:43;22.13;;;13.43;;
55603;SDS011;41468;48.838;9.330;2024-01-10T11:54:34;24.83;;;12.97;;
55603;SDS011;41468;48.838;9.330;2024-01-10T11:57:12;20.80;;;12.73;;
55603;SDS011;41468;48.838;9.330;2024-01-10T11:59:41;19.20;;;12.50;;
55603;SDS011;41468;48.838;9.330;2024-01-10T12:02:11;20.47;;;12.77;;
55603;SDS011;41468;48.838;9.330;2024-01-10T12:04:40;20.80;;;12.77;;
55603;SDS011;41468;48.838;9.330;2024-01-10T12:07:13;20.10;;;13.27;;
55603;SDS011;41468;48.838;9.330;2024-01-10T12:09:41;19.97;;;12.30;;
55603;SDS011;41468;48.838;9.330;2024-01-10T12:12:12;19.13;;;13.07;;
55603;SDS011;41468;48.838;9.330;2024-01-10T12:14:40;22.00;;;12.90;;
55603;SDS011;41468;48.838;9.330;2024-01-10T12:17:18;23.27;;;12.53;;
55603;SDS011;41468;48.838;9.330;2024-01-10T12:19:46;22.83;;;13.60;;
55603;SDS011;41468;48.838;9.330;2024-01-10T12:22:18;23.93;;;12.97;;
55603;SDS011;41468;48.838;9.330;2024-01-10T12:24:47;19.87;;;13.10;;
55603;SDS011;41468;48.838;9.330;2024-01-10T12:27:16;23.20;;;13.53;;
55603;SDS011;41468;48.838;9.330;2024-01-10T12:29:47;18.77;;;12.77;;
55603;SDS011;41468;48.838;9.330;2024-01-10T12:32:17;19.07;;;12.60;;
55603;SDS011;41468;48.838;9.330;2024-01-10T12:34:45;20.90;;;12.73;;
55603;SDS011;41468;48.838;9.330;2024-01-10T12:37:12;19.43;;;12.20;;
55603;SDS011;41468;48.838;9.330;2024-01-10T12:39:50;22.33;;;13.20;;
55603;SDS011;41468;48.838;9.330;2024-01-10T12:42:17;23.03;;;13.07;;
55603;SDS011;41468;48.838;9.330;2024-01-10T12:44:44;22.60;;;14.07;;
55603;SDS011;41468;48.838;9.330;2024-01-10T12:47:20;29.20;;;17.67;;
55603;SDS011;41468;48.838;9.330;2024-01-10T12:49:49;39.60;;;22.70;;
55603;SDS011;41468;48.838;9.330;2024-01-10T12:52:16;22.80;;;14.20;;
55603;SDS011;41468;48.838;9.330;2024-01-10T12:54:47;20.23;;;12.80;;
55603;SDS011;41468;48.838;9.330;2024-01-10T12:57:18;23.53;;;13.83;;
55603;SDS011;41468;48.838;9.330;2024-01-10T12:59:45;21.03;;;13.60;;
55603;SDS011;41468;48.838;9.330;2024-01-10T13:02:23;19.90;;;13.00;;
55603;SDS011;41468;48.838;9.330;2024-01-10T13:04:51;22.93;;;14.03;;
55603;SDS011;41468;48.838;9.330;2024-01-10T13:07:18;20.17;;;13.57;;
55603;SDS011;41468;48.838;9.330;2024-01-10T13:09:45;28.63;;;12.90;;
55603;SDS011;41468;48.838;9.330;2024-01-10T13:12:12;19.27;;;13.00;;
55603;SDS011;41468;48.838;9.330;2024-01-10T13:14:51;22.67;;;13.63;;
55603;SDS011;41468;48.838;9.330;2024-01-10T13:17:17;22.53;;;13.50;;
55603;SDS011;41468;48.838;9.330;2024-01-10T13:19:44;21.70;;;13.30;;
55603;SDS011;41468;48.838;9.330;2024-01-10T13:22:15;24.40;;;13.47;;
55603;SDS011;41468;48.838;9.330;2024-01-10T13:24:45;19.87;;;13.50;;
55603;SDS011;41468;48.838;9.330;2024-01-10T13:27:12;20.30;;;13.40;;
55603;SDS011;41468;48.838;9.330;2024-01-10T13:29:39;21.20;;;13.43;;
55603;SDS011;41468;48.838;9.330;2024-01-10T13:32:06;21.73;;;13.17;;
55603;SDS011;41468;48.838;9.330;2024-01-10T13:34:33;20.50;;;12.83;;
55603;SDS011;41468;48.838;9.330;2024-01-10T13:37:00;21.47;;;13.60;;
55603;SDS011;41468;48.838;9.330;2024-01-10T13:39:28;21.87;;;12.90;;
55603;SDS011;41468;48.838;9.330;2024-01-10T13:41:55;23.60;;;13.10;;
55603;SDS011;41468;48.838;9.330;2024-01-10T13:44:22;21.50;;;12.67;;
55603;SDS011;41468;48.838;9.330;2024-01-10T13:46:49;28.23;;;14.57;;
55603;SDS011;41468;48.838;9.330;2024-01-10T13:49:16;22.63;;;13.83;;
55603;SDS011;41468;48.838;9.330;2024-01-10T13:51:50;24.55;;;15.15;;
55603;SDS011;41468;48.838;9.330;2024-01-10T13:54:17;23.83;;;14.37;;
55603;SDS011;41468;48.838;9.330;2024-01-10T13:56:48;22.80;;;13.73;;
55603;SDS011;41468;48.838;9.330;2024-01-10T13:59:15;22.43;;;13.80;;
55603;SDS011;41468;48.838;9.330;2024-01-10T14:01:42;22.70;;;14.33;;
55603;SDS011;41468;48.838;9.330;2024-01-10T14:04:09;19.10;;;13.47;;
55603;SDS011;41468;48.838;9.330;2024-01-10T14:06:40;23.63;;;14.27;;
55603;SDS011;41468;48.838;9.330;2024-01-10T14:09:07;21.00;;;12.83;;
55603;SDS011;41468;48.838;9.330;2024-01-10T14:11:36;22.53;;;14.03;;
55603;SDS011;41468;48.838;9.330;2024-01-10T14:14:03;22.23;;;14.00;;
55603;SDS011;41468;48.838;9.330;2024-01-10T14:16:30;22.33;;;14.43;;
55603;SDS011;41468;48.838;9.330;2024-01-10T14:18:57;22.07;;;13.97;;
55603;SDS011;41468;48.838;9.330;2024-01-10T14:21:23;27.90;;;14.17;;
55603;SDS011;41468;48.838;9.330;2024-01-10T14:23:50;21.10;;;13.33;;
55603;SDS011;41468;48.838;9.330;2024-01-10T14:26:17;23.07;;;13.90;;
55603;SDS011;41468;48.838;9.330;2024-01-10T14:28:44;21.43;;;14.77;;
55603;SDS011;41468;48.838;9.330;2024-01-10T14:31:10;27.27;;;14.57;;
55603;SDS011;41468;48.838;9.330;2024-01-10T14:33:54;25.50;;;14.03;;
55603;SDS011;41468;48.838;9.330;2024-01-10T14:36:21;22.40;;;14.47;;
55603;SDS011;41468;48.838;9.330;2024-01-10T14:38:48;21.20;;;14.03;;
55603;SDS011;41468;48.838;9.330;2024-01-10T14:41:15;25.40;;;14.07;;
55603;SDS011;41468;48.838;9.330;2024-01-10T14:43:42;22.77;;;14.03;;
55603;SDS011;41468;48.838;9.330;2024-01-10T14:46:08;23.47;;;13.70;;
55603;SDS011;41468;48.838;9.330;2024-01-10T14:48:36;23.93;;;13.80;;